Alma, Kansas
Current Conditions -  °F | °C
As of 10:52 AM on Saturday 20 Dec 2014 (Local Time) from KMHK Reporting Station
Haze Haze  
Wind Chill: 35°   Ceiling: Unl
Heat Index: 42°   Visibility: 6mi
Dew Point: 36°   Wind: 13mph
Humidity: 79%   Direction: 230°SW
Pressure: 30.13"   Gusts: NA
Location:  39.02°N, 96.29°W
Report Text: KMHK 201652Z 23011KT 6SM HZ CLR 06/02 A3013 RMK AO2 SLP211 T00560022
Loading
Personal Weather Stations






























Interactive Weather Map New forecast layout! Learn more

10-Day Weather Forecast

Advertisements
Track Severe Weather on mobile